createdAt,value
2019-05-23T00:01:57.043Z,99.90
2019-05-23T00:04:36.080Z,99.90
2019-05-23T00:07:07.439Z,99.90
2019-05-23T00:09:36.113Z,99.90
2019-05-23T00:12:06.284Z,99.90
2019-05-23T00:14:39.448Z,99.90
2019-05-23T00:17:12.029Z,99.90
2019-05-23T00:19:40.602Z,99.90
2019-05-23T00:22:11.473Z,99.90
2019-05-23T00:24:42.557Z,99.90
2019-05-23T00:27:11.423Z,99.90
2019-05-23T00:29:41.096Z,99.90
2019-05-23T00:35:02.614Z,99.90
2019-05-23T00:37:31.652Z,99.90
2019-05-23T00:40:00.168Z,99.90
2019-05-23T00:42:29.603Z,99.90
2019-05-23T00:44:59.152Z,99.90
2019-05-23T00:47:28.506Z,99.90
2019-05-23T00:50:18.435Z,99.90
2019-05-23T00:52:47.233Z,99.90
2019-05-23T00:55:17.492Z,99.90
2019-05-23T00:57:46.388Z,99.90
2019-05-23T01:00:19.212Z,99.90
2019-05-23T01:02:47.794Z,99.90
2019-05-23T01:05:37.861Z,99.90
2019-05-23T01:08:07.233Z,99.90
2019-05-23T01:10:35.851Z,99.90
2019-05-23T01:13:05.419Z,99.90
2019-05-23T01:15:35.976Z,99.90
2019-05-23T01:18:04.982Z,99.90
2019-05-23T01:20:43.898Z,99.90
2019-05-23T01:23:13.977Z,99.90
2019-05-23T01:25:42.483Z,99.90
2019-05-23T01:28:11.234Z,99.90
2019-05-23T01:31:00.076Z,99.90
2019-05-23T01:33:29.244Z,99.90
2019-05-23T01:35:58.162Z,99.90
2019-05-23T01:38:26.863Z,99.90
2019-05-23T01:40:55.308Z,99.90
2019-05-23T01:43:25.577Z,99.90
2019-05-23T01:45:54.025Z,99.90
2019-05-23T01:48:23.009Z,99.90
2019-05-23T01:50:51.561Z,99.90
2019-05-23T01:53:21.490Z,99.90
2019-05-23T01:55:50.165Z,99.90
2019-05-23T01:58:18.596Z,99.90
2019-05-23T02:00:47.604Z,99.90
2019-05-23T02:03:16.709Z,99.90
2019-05-23T02:05:45.588Z,99.90
2019-05-23T02:08:16.552Z,99.90
2019-05-23T02:10:45.610Z,99.90
2019-05-23T02:13:14.057Z,99.90
2019-05-23T02:15:43.821Z,99.90
2019-05-23T02:18:12.431Z,99.90
2019-05-23T02:20:41.281Z,99.90
2019-05-23T02:23:12.153Z,99.90
2019-05-23T02:25:42.647Z,99.90
2019-05-23T02:28:12.484Z,99.90
2019-05-23T02:30:40.984Z,99.90
2019-05-23T02:33:10.261Z,99.90
2019-05-23T02:35:40.337Z,99.90
2019-05-23T02:38:25.687Z,99.90
2019-05-23T02:40:55.762Z,99.90
2019-05-23T02:43:27.741Z,99.90
2019-05-23T02:46:03.611Z,99.90
2019-05-23T02:48:38.956Z,99.90
2019-05-23T02:51:10.628Z,99.90
2019-05-23T02:53:40.468Z,99.90
2019-05-23T02:56:11.880Z,99.90
2019-05-23T02:58:48.951Z,99.90
2019-05-23T03:05:00.827Z,99.90
2019-05-23T03:07:33.037Z,99.90
2019-05-23T03:10:07.028Z,99.90
2019-05-23T03:12:38.796Z,99.90
2019-05-23T03:15:10.787Z,99.90
2019-05-23T03:17:42.930Z,99.90
2019-05-23T03:20:23.762Z,99.90
2019-05-23T03:23:05.871Z,99.90
2019-05-23T03:25:39.071Z,99.90
2019-05-23T03:28:13.875Z,99.90
2019-05-23T03:31:25.133Z,99.90
2019-05-23T03:33:29.798Z,99.90
2019-05-23T03:36:00.043Z,99.90
2019-05-23T03:38:28.564Z,99.90
2019-05-23T03:40:57.008Z,99.90
2019-05-23T03:43:26.542Z,99.90
2019-05-23T03:45:58.191Z,99.90
2019-05-23T03:48:27.813Z,99.90
2019-05-23T03:51:17.138Z,99.90
2019-05-23T03:53:47.221Z,99.90
2019-05-23T03:56:15.734Z,99.90
2019-05-23T03:58:45.071Z,99.90
2019-05-23T04:01:15.200Z,99.90
2019-05-23T04:03:44.753Z,99.90
2019-05-23T04:06:14.333Z,99.90
2019-05-23T04:08:44.555Z,99.90
2019-05-23T04:11:13.822Z,99.90
2019-05-23T04:13:42.609Z,99.90
2019-05-23T04:16:11.417Z,99.90
2019-05-23T04:18:40.012Z,99.90
2019-05-23T04:21:08.625Z,99.90
2019-05-23T04:23:37.090Z,99.90
2019-05-23T04:26:05.995Z,99.90
2019-05-23T04:28:34.445Z,99.90
2019-05-23T04:31:03.047Z,99.90
2019-05-23T04:33:31.568Z,99.90
2019-05-23T04:36:00.082Z,99.90
2019-05-23T04:38:28.575Z,99.90
2019-05-23T04:40:57.402Z,99.90
2019-05-23T04:43:26.203Z,99.90
2019-05-23T04:45:54.731Z,99.90
2019-05-23T04:48:23.786Z,99.90
2019-05-23T04:51:00.098Z,99.90
2019-05-23T04:53:29.550Z,99.90
2019-05-23T04:55:58.106Z,99.90
2019-05-23T04:58:26.624Z,99.90
2019-05-23T05:00:55.131Z,99.90
2019-05-23T05:03:23.714Z,99.90
2019-05-23T05:05:52.175Z,99.90
2019-05-23T05:08:20.637Z,99.90
2019-05-23T05:10:49.563Z,99.90
2019-05-23T05:13:19.401Z,99.90
2019-05-23T05:15:49.010Z,99.90
2019-05-23T05:18:19.232Z,99.90
2019-05-23T05:20:47.721Z,99.90
2019-05-23T05:23:16.232Z,99.90
2019-05-23T05:25:44.688Z,99.90
2019-05-23T05:28:13.290Z,99.90
2019-05-23T05:30:41.974Z,99.90
2019-05-23T05:33:10.971Z,99.90
2019-05-23T05:35:39.759Z,99.90
2019-05-23T05:38:08.503Z,99.90
2019-05-23T05:40:37.652Z,99.90
2019-05-23T05:43:06.167Z,99.90
2019-05-23T05:45:34.699Z,99.90
2019-05-23T05:48:03.873Z,99.90
2019-05-23T05:50:32.774Z,99.90
2019-05-23T05:53:01.226Z,99.90
2019-05-23T05:55:29.686Z,99.90
2019-05-23T05:57:58.322Z,99.90
2019-05-23T06:00:28.599Z,99.90
2019-05-23T06:03:04.303Z,99.90
2019-05-23T06:05:32.959Z,99.90
2019-05-23T06:08:01.567Z,99.90
2019-05-23T06:10:30.388Z,99.90
2019-05-23T06:12:58.847Z,99.90
2019-05-23T06:15:27.299Z,99.90
2019-05-23T06:17:55.886Z,99.90
2019-05-23T06:20:24.425Z,99.90
2019-05-23T06:22:52.953Z,99.90
2019-05-23T06:25:21.630Z,99.90
2019-05-23T06:27:50.233Z,99.90
2019-05-23T06:30:21.248Z,99.90
2019-05-23T06:32:49.813Z,99.90
2019-05-23T06:35:23.434Z,99.90
2019-05-23T06:37:52.015Z,99.90
2019-05-23T06:40:21.049Z,99.90
2019-05-23T06:42:51.082Z,99.90
2019-05-23T06:45:20.762Z,99.90
2019-05-23T06:47:49.273Z,99.90
2019-05-23T06:50:19.258Z,99.90
2019-05-23T06:52:47.704Z,99.90
2019-05-23T06:55:16.297Z,99.90
2019-05-23T06:57:44.801Z,99.90
2019-05-23T07:00:15.011Z,99.90
2019-05-23T07:02:44.103Z,99.90
2019-05-23T07:05:14.222Z,99.90
2019-05-23T07:07:43.400Z,99.90
2019-05-23T07:10:11.981Z,99.90
2019-05-23T07:12:40.488Z,99.90
2019-05-23T07:15:10.277Z,99.90
2019-05-23T07:17:40.359Z,99.90
2019-05-23T07:20:10.196Z,99.90
2019-05-23T07:22:38.857Z,99.90
2019-05-23T07:25:08.379Z,99.90
2019-05-23T07:27:37.293Z,99.90
2019-05-23T07:30:12.179Z,99.90
2019-05-23T07:32:40.886Z,99.90
2019-05-23T07:35:28.675Z,99.90
2019-05-23T07:37:57.242Z,99.90
2019-05-23T07:40:27.999Z,99.90
2019-05-23T07:42:56.611Z,99.90
2019-05-23T07:45:44.978Z,99.20
2019-05-23T07:48:15.198Z,99.20
2019-05-23T07:50:44.929Z,99.90
2019-05-23T07:53:15.083Z,99.90
2019-05-23T07:55:45.180Z,99.90
2019-05-23T07:58:14.888Z,99.90
2019-05-23T08:00:45.084Z,99.90
2019-05-23T08:03:15.415Z,99.90
2019-05-23T08:05:44.483Z,99.90
2019-05-23T08:08:13.255Z,99.90
2019-05-23T08:10:41.902Z,99.90
2019-05-23T08:13:10.362Z,99.90
2019-05-23T08:15:38.818Z,99.90
2019-05-23T08:18:07.271Z,99.90
2019-05-23T08:20:35.804Z,99.90
2019-05-23T08:23:04.272Z,99.90
2019-05-23T08:25:33.062Z,99.90
2019-05-23T08:28:01.967Z,99.90
2019-05-23T08:30:30.419Z,99.80
2019-05-23T08:32:58.882Z,98.90
2019-05-23T08:35:27.346Z,98.30
2019-05-23T08:37:55.957Z,97.50
2019-05-23T08:40:25.215Z,97.80
2019-05-23T08:42:53.851Z,97.70
2019-05-23T08:45:22.519Z,97.00
2019-05-23T08:47:50.983Z,97.70
2019-05-23T08:50:21.143Z,98.10
2019-05-23T08:52:50.144Z,97.00
2019-05-23T08:55:21.740Z,96.70
2019-05-23T08:57:50.854Z,96.00
2019-05-23T09:00:20.568Z,94.80
2019-05-23T09:02:51.641Z,95.60
2019-05-23T09:05:21.484Z,95.00
2019-05-23T09:07:50.567Z,94.10
2019-05-23T09:10:20.191Z,94.20
2019-05-23T09:12:48.735Z,94.80
2019-05-23T09:15:17.372Z,94.10
2019-05-23T09:17:52.923Z,94.60
2019-05-23T09:20:16.764Z,92.80
2019-05-23T09:22:45.407Z,92.70
2019-05-23T09:25:20.197Z,93.10
2019-05-23T09:28:02.153Z,93.90
2019-05-23T09:30:32.459Z,93.60
2019-05-23T09:33:01.288Z,92.30
2019-05-23T09:35:29.789Z,91.00
2019-05-23T09:37:58.586Z,92.20
2019-05-23T09:40:27.158Z,92.00
2019-05-23T09:42:55.688Z,92.30
2019-05-23T09:45:24.211Z,92.50
2019-05-23T09:47:52.730Z,91.50
2019-05-23T09:50:22.843Z,90.10
2019-05-23T09:52:51.342Z,90.10
2019-05-23T09:55:19.871Z,88.30
2019-05-23T09:57:48.315Z,86.00
2019-05-23T10:00:20.052Z,86.50
2019-05-23T10:02:48.564Z,86.00
2019-05-23T10:05:17.467Z,86.80
2019-05-23T10:07:46.035Z,86.10
2019-05-23T10:10:15.610Z,86.40
2019-05-23T10:12:44.253Z,88.50
2019-05-23T10:15:17.817Z,88.10
2019-05-23T10:17:46.272Z,86.90
2019-05-23T10:20:15.264Z,87.40
2019-05-23T10:22:43.834Z,84.90
2019-05-23T10:25:12.653Z,86.20
2019-05-23T10:27:41.272Z,87.20
2019-05-23T10:30:11.796Z,85.30
2019-05-23T10:32:40.244Z,84.00
2019-05-23T10:35:10.613Z,85.30
2019-05-23T10:37:39.106Z,83.50
2019-05-23T10:40:08.513Z,83.70
2019-05-23T10:42:37.795Z,84.20
2019-05-23T10:45:09.433Z,79.20
2019-05-23T10:47:41.078Z,79.90
2019-05-23T10:50:11.285Z,79.80
2019-05-23T10:52:40.600Z,80.00
2019-05-23T10:55:09.301Z,81.80
2019-05-23T10:57:37.737Z,82.90
2019-05-23T11:00:09.921Z,81.40
2019-05-23T11:02:39.263Z,78.20
2019-05-23T11:05:13.084Z,78.60
2019-05-23T11:07:39.399Z,79.30
2019-05-23T11:10:08.092Z,82.70
2019-05-23T11:12:37.200Z,82.00
2019-05-23T11:15:07.216Z,81.20
2019-05-23T11:17:36.087Z,81.00
2019-05-23T11:20:08.802Z,83.60
2019-05-23T11:22:37.252Z,78.50
2019-05-23T11:25:07.512Z,78.90
2019-05-23T11:27:35.959Z,79.50
2019-05-23T11:30:07.684Z,78.10
2019-05-23T11:32:36.141Z,75.90
2019-05-23T11:35:05.649Z,76.60
2019-05-23T11:37:34.155Z,74.30
2019-05-23T11:40:02.662Z,75.00
2019-05-23T11:42:31.173Z,76.20
2019-05-23T11:44:59.714Z,76.20
2019-05-23T11:47:31.838Z,78.70
2019-05-23T11:49:58.496Z,76.10
2019-05-23T11:52:27.533Z,76.00
2019-05-23T11:54:55.998Z,72.60
2019-05-23T11:57:24.512Z,71.30
2019-05-23T11:59:52.985Z,72.70
2019-05-23T12:02:23.079Z,71.20
2019-05-23T12:04:52.803Z,70.60
2019-05-23T12:07:26.276Z,68.50
2019-05-23T12:09:54.725Z,61.80
2019-05-23T12:12:23.258Z,64.90
2019-05-23T12:14:51.880Z,60.00
2019-05-23T12:17:21.348Z,57.20
2019-05-23T12:19:49.789Z,54.20
2019-05-23T12:22:18.816Z,52.70
2019-05-23T12:24:47.328Z,50.30
2019-05-23T12:27:15.868Z,49.00
2019-05-23T12:29:44.467Z,49.80
2019-05-23T12:32:14.118Z,47.00
2019-05-23T12:34:42.678Z,47.20
2019-05-23T12:37:18.990Z,45.20
2019-05-23T12:39:41.738Z,43.70
2019-05-23T12:42:10.188Z,43.50
2019-05-23T12:44:38.701Z,42.80
2019-05-23T12:47:08.868Z,39.20
2019-05-23T12:49:38.939Z,40.20
2019-05-23T12:52:08.488Z,39.10
2019-05-23T12:54:36.997Z,38.20
2019-05-23T12:57:05.691Z,36.10
2019-05-23T12:59:35.071Z,36.10
2019-05-23T13:02:05.174Z,37.50
2019-05-23T13:04:33.991Z,36.80
2019-05-23T13:07:03.296Z,36.30
2019-05-23T13:09:31.917Z,34.50
2019-05-23T13:12:00.362Z,33.70
2019-05-23T13:14:29.254Z,35.40
2019-05-23T13:17:00.694Z,38.30
2019-05-23T13:19:28.419Z,38.40
2019-05-23T13:21:57.120Z,36.90
2019-05-23T13:24:26.113Z,36.50
2019-05-23T13:26:54.622Z,34.90
2019-05-23T13:29:24.601Z,33.60
2019-05-23T13:31:53.441Z,32.90
2019-05-23T13:34:21.966Z,34.10
2019-05-23T13:36:50.448Z,34.90
2019-05-23T13:39:20.282Z,33.90
2019-05-23T13:41:48.942Z,34.50
2019-05-23T13:44:33.088Z,34.30
2019-05-23T13:46:47.586Z,31.90
2019-05-23T13:49:16.835Z,30.10
2019-05-23T13:51:51.393Z,30.00
2019-05-23T13:54:20.853Z,29.70
2019-05-23T13:56:50.347Z,29.70
2019-05-23T13:59:18.960Z,30.50
2019-05-23T14:01:47.577Z,30.00
2019-05-23T14:04:16.129Z,30.40
2019-05-23T14:06:50.946Z,31.10
2019-05-23T14:09:20.092Z,30.10
2019-05-23T14:11:49.050Z,29.90
2019-05-23T14:14:21.697Z,29.80
2019-05-23T14:16:51.891Z,29.50
2019-05-23T14:19:20.350Z,28.90
2019-05-23T14:21:48.878Z,28.10
2019-05-23T14:24:17.506Z,27.90
2019-05-23T14:26:47.730Z,27.80
2019-05-23T14:29:16.440Z,28.40
2019-05-23T14:32:03.294Z,28.40
2019-05-23T14:34:33.285Z,27.70
2019-05-23T14:37:03.827Z,28.70
2019-05-23T14:39:34.061Z,27.20
2019-05-23T14:42:04.294Z,27.10
2019-05-23T14:44:41.397Z,26.80
2019-05-23T14:47:27.503Z,25.80
2019-05-23T14:50:17.503Z,26.20
2019-05-23T14:52:50.553Z,26.90
2019-05-23T14:55:19.139Z,26.80
2019-05-23T14:57:47.927Z,26.80
2019-05-23T15:00:16.537Z,25.90
2019-05-23T15:02:45.054Z,26.10
2019-05-23T15:05:13.558Z,26.40
2019-05-23T15:07:42.185Z,27.20
2019-05-23T15:10:10.979Z,26.30
2019-05-23T15:12:39.493Z,24.30
2019-05-23T15:15:08.397Z,23.80
2019-05-23T15:17:44.985Z,23.00
2019-05-23T15:20:13.450Z,22.50
2019-05-23T15:22:41.901Z,22.20
2019-05-23T15:25:10.599Z,21.70
2019-05-23T15:27:41.887Z,22.80
2019-05-23T15:30:11.086Z,24.60
2019-05-23T15:32:39.595Z,25.20
2019-05-23T15:35:08.134Z,26.80
2019-05-23T15:37:36.652Z,26.90
2019-05-23T15:40:05.943Z,27.40
2019-05-23T15:42:34.397Z,28.50
2019-05-23T15:45:02.958Z,28.60
2019-05-23T15:47:35.436Z,29.50
2019-05-23T15:50:11.187Z,30.80
2019-05-23T15:52:42.789Z,31.10
2019-05-23T15:55:15.841Z,31.10
2019-05-23T15:57:46.065Z,32.60
2019-05-23T16:00:32.683Z,33.50
2019-05-23T16:03:02.778Z,34.80
2019-05-23T16:05:31.855Z,35.70
2019-05-23T16:08:00.521Z,37.10
2019-05-23T16:13:18.681Z,37.40
2019-05-23T16:15:47.226Z,38.80
2019-05-23T16:18:15.655Z,39.20
2019-05-23T16:20:44.596Z,39.70
2019-05-23T16:23:13.108Z,39.60
2019-05-23T16:25:41.563Z,40.50
2019-05-23T16:28:10.025Z,40.10
2019-05-23T16:30:38.576Z,40.50
2019-05-23T16:33:07.139Z,41.00
2019-05-23T16:35:35.599Z,41.30
2019-05-23T16:38:04.088Z,41.20
2019-05-23T16:40:32.596Z,42.00
2019-05-23T16:43:01.028Z,42.20
2019-05-23T16:45:29.475Z,42.30
2019-05-23T16:47:57.953Z,42.70
2019-05-23T16:50:26.540Z,43.00
2019-05-23T16:52:54.981Z,42.90
2019-05-23T16:55:41.817Z,43.20
2019-05-23T16:58:28.392Z,43.40
2019-05-23T17:00:58.620Z,43.10
2019-05-23T17:03:34.581Z,42.20
2019-05-23T17:06:04.666Z,42.10
2019-05-23T17:08:52.835Z,42.80
2019-05-23T17:11:39.446Z,42.90
2019-05-23T17:14:18.311Z,43.10
2019-05-23T17:16:48.472Z,43.30
2019-05-23T17:19:21.317Z,43.10
2019-05-23T17:22:08.054Z,44.00
2019-05-23T17:24:44.235Z,42.40
2019-05-23T17:27:23.265Z,42.10
2019-05-23T17:29:53.342Z,41.30
2019-05-23T17:32:23.437Z,41.40
2019-05-23T17:34:54.356Z,41.20
2019-05-23T17:37:24.246Z,42.60
2019-05-23T17:39:53.754Z,41.50
2019-05-23T17:42:22.366Z,42.00
2019-05-23T17:44:50.797Z,42.70
2019-05-23T17:47:19.993Z,41.80
2019-05-23T17:49:48.607Z,42.20
2019-05-23T17:52:17.806Z,43.30
2019-05-23T17:54:46.603Z,43.70
2019-05-23T17:57:15.462Z,43.00
2019-05-23T17:59:44.489Z,43.00
2019-05-23T18:02:13.116Z,44.20
2019-05-23T18:04:41.563Z,44.80
2019-05-23T18:07:10.488Z,45.20
2019-05-23T18:09:39.086Z,45.30
2019-05-23T18:12:08.658Z,45.30
2019-05-23T18:14:37.370Z,46.00
2019-05-23T18:17:06.683Z,46.70
2019-05-23T18:19:35.504Z,46.80
2019-05-23T18:22:05.702Z,47.00
2019-05-23T18:24:34.682Z,46.70
2019-05-23T18:27:03.624Z,47.10
2019-05-23T18:29:32.423Z,46.50
2019-05-23T18:32:02.205Z,47.00
2019-05-23T18:34:31.021Z,47.40
2019-05-23T18:36:59.954Z,47.90
2019-05-23T18:39:29.937Z,48.30
2019-05-23T18:41:58.891Z,48.90
2019-05-23T18:44:27.540Z,49.10
2019-05-23T18:46:57.630Z,50.00
2019-05-23T18:49:27.017Z,50.80
2019-05-23T18:51:55.633Z,51.30
2019-05-23T18:54:24.174Z,51.60
2019-05-23T18:56:53.211Z,52.10
2019-05-23T18:59:22.211Z,52.60
2019-05-23T19:01:51.005Z,53.50
2019-05-23T19:04:19.638Z,53.60
2019-05-23T19:06:48.801Z,54.90
2019-05-23T19:09:18.121Z,55.10
2019-05-23T19:11:46.594Z,55.40
2019-05-23T19:14:15.129Z,56.10
2019-05-23T19:16:43.593Z,56.30
2019-05-23T19:19:12.099Z,56.80
2019-05-23T19:21:40.574Z,56.80
2019-05-23T19:24:09.042Z,57.70
2019-05-23T19:26:37.501Z,58.20
2019-05-23T19:29:06.436Z,58.70
2019-05-23T19:31:36.349Z,59.30
2019-05-23T19:34:05.335Z,59.90
2019-05-23T19:36:34.275Z,61.00
2019-05-23T19:39:02.749Z,61.70
2019-05-23T19:41:37.601Z,62.50
2019-05-23T19:44:04.178Z,63.60
2019-05-23T19:46:32.691Z,64.70
2019-05-23T19:49:01.187Z,65.50
2019-05-23T19:51:29.762Z,66.40
2019-05-23T19:53:59.369Z,66.70
2019-05-23T19:56:27.934Z,67.40
2019-05-23T19:58:57.072Z,68.20
2019-05-23T20:01:31.625Z,68.90
2019-05-23T20:03:58.166Z,69.50
2019-05-23T20:06:26.686Z,70.40
2019-05-23T20:08:55.757Z,71.40
2019-05-23T20:11:24.227Z,72.10
2019-05-23T20:13:52.670Z,73.00
2019-05-23T20:16:21.107Z,73.20
2019-05-23T20:18:50.122Z,73.90
2019-05-23T20:24:14.478Z,75.50
2019-05-23T20:26:43.006Z,76.00
2019-05-23T20:29:11.485Z,77.90
2019-05-23T20:31:40.154Z,79.30
2019-05-23T20:34:09.181Z,81.40
2019-05-23T20:36:37.637Z,79.50
2019-05-23T20:39:07.622Z,79.40
2019-05-23T20:41:37.142Z,79.70
2019-05-23T20:44:10.223Z,79.70
2019-05-23T20:46:39.067Z,79.50
2019-05-23T20:49:07.583Z,80.90
2019-05-23T20:51:36.664Z,86.10
2019-05-23T20:54:05.170Z,87.60
2019-05-23T20:59:29.288Z,88.70
2019-05-23T21:01:57.706Z,88.90
2019-05-23T21:04:26.155Z,89.30
2019-05-23T21:06:54.656Z,89.60
2019-05-23T21:09:23.095Z,90.60
2019-05-23T21:11:51.519Z,91.10
2019-05-23T21:14:19.942Z,91.60
2019-05-23T21:16:48.377Z,92.00
2019-05-23T21:19:16.805Z,92.70
2019-05-23T21:21:45.319Z,92.70
2019-05-23T21:24:13.740Z,92.20
2019-05-23T21:26:42.184Z,91.90
2019-05-23T21:29:10.615Z,92.10
2019-05-23T21:31:39.054Z,92.30
2019-05-23T21:34:07.484Z,92.70
2019-05-23T21:36:35.915Z,93.10
2019-05-23T21:39:11.372Z,93.60
2019-05-23T21:41:40.121Z,93.50
2019-05-23T21:44:10.195Z,93.70
2019-05-23T21:46:38.623Z,94.00
2019-05-23T21:49:07.217Z,94.30
2019-05-23T21:51:35.681Z,94.50
2019-05-23T21:54:04.167Z,94.10
2019-05-23T21:56:32.588Z,94.50
2019-05-23T21:59:01.030Z,94.80
2019-05-23T22:01:31.117Z,94.90
2019-05-23T22:04:04.521Z,94.60
2019-05-23T22:06:40.592Z,94.30
2019-05-23T22:09:11.023Z,94.60
2019-05-23T22:11:39.467Z,94.70
2019-05-23T22:14:08.193Z,94.60
2019-05-23T22:16:37.041Z,94.50
2019-05-23T22:19:07.668Z,95.00
2019-05-23T22:21:36.124Z,95.10
2019-05-23T22:24:05.761Z,95.50
2019-05-23T22:26:34.354Z,95.70
2019-05-23T22:29:03.104Z,95.90
2019-05-23T22:31:31.720Z,96.00
2019-05-23T22:34:04.793Z,96.20
2019-05-23T22:36:33.228Z,96.40
2019-05-23T22:39:02.097Z,96.50
2019-05-23T22:41:30.537Z,96.90
2019-05-23T22:43:58.958Z,97.00
2019-05-23T22:46:28.655Z,97.40
2019-05-23T22:48:57.080Z,97.80
2019-05-23T22:51:25.522Z,97.90
2019-05-23T22:53:53.940Z,97.60
2019-05-23T22:56:22.391Z,97.90
2019-05-23T22:58:51.619Z,98.20
2019-05-23T23:01:22.708Z,97.80
2019-05-23T23:03:52.664Z,97.80
2019-05-23T23:06:21.464Z,97.80
2019-05-23T23:08:50.061Z,98.10
2019-05-23T23:11:18.493Z,98.40
2019-05-23T23:13:46.985Z,98.30
2019-05-23T23:16:15.665Z,98.60
2019-05-23T23:18:44.107Z,99.20
2019-05-23T23:21:12.595Z,99.10
2019-05-23T23:23:41.023Z,99.10
2019-05-23T23:26:09.457Z,99.10
2019-05-23T23:28:37.879Z,98.90
2019-05-23T23:31:06.319Z,99.10
2019-05-23T23:33:34.748Z,99.40
2019-05-23T23:36:03.168Z,99.60
2019-05-23T23:38:31.644Z,99.40
2019-05-23T23:41:00.130Z,99.40
2019-05-23T23:43:28.627Z,99.60
2019-05-23T23:46:15.010Z,99.90
2019-05-23T23:49:01.494Z,99.90
2019-05-23T23:51:48.115Z,99.90
2019-05-23T23:54:34.710Z,99.90
2019-05-23T23:57:21.187Z,99.90
2019-05-23T23:59:48.929Z,99.90
